NCAR-RAP Real-Time Weather Data

Output produced by METARs form (21 May 2019  11:41 UTC)
found at http://weather.rap.ucar.edu/surface/
 
RJOI 211055Z 30008KT 9999 FEW030 FEW250 19/06 A2971 RMK SLP061 T01940056
RJOI 210955Z 30010KT 9999 FEW030 SCT250 21/04 A2968 RMK SLP051 T02110044
RJOI 210855Z 28008KT 9999 FEW030 BKN250 23/08 A2966 RMK SLP044 T02330078 53003
RJOI 210755Z 16010KT 9999 FEW030 BKN250 23/13 A2966 RMK SLP042 T02280128
RJOI 210655Z 17013KT 9999 FEW030 BKN250 23/12 A2966 RMK SLP042 T02280117
RJOI 210555Z 16014KT 9999 FEW030 BKN250 22/13 A2966 RMK SLP044 T02170128 10222 20189 56017
RJOI 210455Z 16011KT 9999 FEW030 BKN250 22/11 A2967 RMK SLP046 T02220111
RJOI 210355Z 17008KT 9999 FEW025 BKN250 21/09 A2968 RMK SLP050 T02110094
RJOI 210255Z 14005KT 9999 FEW025 FEW180 BKN250 21/08 A2970 RMK SLP058 T02060083 57010
RJOI 210155Z 11006KT 9999 FEW020 FEW180 SCT250 20/09 A2972 RMK SLP063 T02000089
RJOI 210055Z 08005KT 9999 FEW020 FEW180 SCT250 19/09 A2973 RMK SLP067 T01940094
RJOI 202355Z 06006KT 9999 FEW020 SCT180 BKN250 19/09 A2973 RMK SLP066 T01890094 10189 20144 51010
RJOI 202255Z 04005KT 9999 FEW020 SCT180 BKN250 18/10 A2974 RMK SLP069 T01780100
RJOI 202155Z 30004KT 9999 FEW025 SCT180 BKN250 16/11 A2973 RMK SLP065 T01610106
RJOI 202055Z 30006KT 9999 FEW025 SCT180 BKN250 14/12 A2971 RMK SLP060 T01440117 5////
RJOI 201955Z 31007KT 9999 FEW025 FEW150 BKN250 14/12 A2969 RMK SLP055 T01440117
RJOI 201933Z 29009KT 9999 FEW025 SCT150 BKN250 15/12 A2969 RMK SLP055 FIRST
RJOI 201655Z 30004KT 9999 SCT150 BKN250 17/13 A2967 RMK SLP045 LAST T01670128
RJOI 201555Z 29008KT 9999 SCT150 BKN250 18/13 A2965 RMK SLP041 T01780128
RJOI 201455Z 27005KT 9999 SCT100 BKN250 18/14 A2965 RMK SLP041 60002 T01830144 402330183 50000
RJOI 201355Z 00000KT 9999 FEW005 BKN100 OVC250 19/17 A2966 RMK SHRAE36 SLP042 P0001 T01890172
RJOI 201340Z 00000KT 9999 FEW005 SCT010 OVC100 19/18 A2967 RMK SLP045
RJOI 201255Z 17009KT 9999 -SHRA FEW002 BKN007 OVC012 19/18 A2967 RMK SHRAB25 SLP045 P0001 T01890178
RJOI 201155Z 16004KT 9999 FEW003 BKN005 OVC010 19/18 A2966 RMK SHRAE44 SLP043 VIS LWR S-W P0006 60133 70144 T01890178 10200 20189 51010
RJOI 201055Z 14006KT 6000 -SHRA BR SCT003 BKN005 OVC010 19/18 A2965 RMK SLP040 P0007 T01890178
RJOI 200955Z 18003KT 3200 +SHRA BR SCT003 BKN008 OVC020 19/18 A2964 RMK SLP037 P0032 T01890183
RJOI 200855Z COR 24003KT 1200 +RA BR BKN003 OVC010 19/18 A2962 RMK SFC VIS 1600 SLP030 P0045 60088 T01940183 55010
RJOI 200841Z 26008KT 0800 +RA FG BKN003 OVC010 19/18 A2963 RMK SLP033
RJOI 200818Z 00000KT 2000 RA BR BKN003 OVC010 19/18 A2961 RMK SLP027
RJOI 200755Z COR 05003KT 0800 +RA FG BKN010 OVC020 19/18 A2961 RMK TWR VIS 3200 RAB11 SLP026 P0036 T01940178
RJOI 200747Z COR 00000KT 0800 +RA FG BKN010 OVC020 19/18 A2962 RMK TWR VIS 3200 SLP029
RJOI 200655Z 01006KT 9000 BR FEW010 BKN020 OVC035 20/18 A2964 RMK SHRAE23B39E50 SLP036 P0007 T02000183
RJOI 200621Z 36005KT 6000 -SHRA BR FEW010 BKN020 OVC035 19/18 A2966 RMK SLP043
RJOI 200555Z 02005KT 4000 -SHRA BR FEW010 BKN020 OVC035 19/18 A2966 RMK SFC VIS 4800 SLP043 P0003 60008 T01940178 10233 20194 56020
RJOI 200530Z 04006KT 4000 -SHRA BR FEW015 BKN025 OVC045 19/18 A2966 RMK SLP042
RJOI 200505Z 06005KT 9999 -SHRA FEW015 BKN025 OVC045 20/18 A2967 RMK SLP045
RJOI 200455Z 00000KT 3200 -SHRA BR FEW015 BKN025 OVC045 20/18 A2967 RMK SFC VIS 4800 SLP048 P0005 T02000178
RJOI 200414Z 00000KT 3200 -SHRA FEW020 BKN030 OVC045 21/17 A2970 RMK SLP055
RJOI 200355Z 26004KT 8000 -SHRA BR FEW020 BKN030 OVC045 21/17 A2970 RMK SHRAB18 SLP058 P0000 T02060167
RJOI 200255Z 19003KT 9999 FEW020 BKN040 OVC050 22/16 A2972 RMK SLP063 T02170156 56017
RJOI 200155Z 21005KT 9999 FEW020 BKN060 BKN080 22/15 A2973 RMK SLP065 T02170150
RJOI 200055Z 18005KT 9999 FEW020 SCT060 BKN100 22/15 A2974 RMK SLP070 T02220150
RJOI 192355Z VRB04KT 9999 FEW020 SCT050 BKN080 23/15 A2976 RMK SLP079 60001 T02280150 10228 20189 56010
RJOI 192255Z 03006KT 9999 FEW020 SCT060 BKN080 21/16 A2977 RMK RAE07 SLP080 P0000 T02110156
RJOI 192155Z COR 03007KT 9999 -RA SCT060 BKN080 BKN100 19/16 A2978 RMK RAE2057B47 SLP085 P0000 T01940156
RJOI 192055Z 02005KT 9999 -SHRA SCT060 BKN080 OVC100 19/16 A2980 RMK RAE23B43 SLP090 P0000 60001 T01890156 57014
RJOI 191955Z 04005KT 9999 -SHRA BKN060 OVC080 19/16 A2980 RMK SLP090 POOOO T01890156
RJOI 191855Z 06004KT 9999 -SHRA BKN060 OVC090 19/16 A2982 RMK RAB54 SLP097 POOO1 T01940156
RJOI 191755Z 06004KT 9999 FEW030 BKN060 OVC090 19/16 A2983 RMK SLP102 60002 T01890161 10206 20189 57017
RJOI 191655Z 03003KT 9999 BKN060 OVC100 19/16 A2985 RAB39E48 SLP106 P0000 T01890161
RJOI 191555Z 03004KT 9999 BKN050 OVC100 19/17 A2987 RMK RAB08E38 SLP113 P0000 T01890167
RJOI 191455Z 02005KT 9999 FEW020 BKN050 OVC090 19/17 A2989 RMK SLP120 60002 T01940167 402390178 57014
RJOI 191355Z 01003KT 9999 FEW020 BKN050 OVC100 19/16 A2991 RMK RAE48 SLP127 P0001 T01940161
RJOI 191255Z 02005KT 9999 -SHRA FEW020 BKN050 BKN100 19/16 A2991 RMK SLP129 P0001 T01940161
RJOI 191155Z 00000KT 9999 -SHRA FEW025 BKN060 OVC100 20/16 A2993 RMK RAB21 SLP134 P0002 60002 70004 T02000161 10222 20200 51007
RJOI 191055Z 18003KT 9999 FEW025 BKN060 OVC100 21/15 A2991 RMK SLP127 T02110150
RJOI 190955Z 19005KT 9999 FEW025 BKN060 OVC100 21/14 A2991 RMK SLP128 T02110144
RJOI 190855Z 00000KT 9999 FEW025 BKN060 OVC100 22/14 A2991 RMK SLP127 60000 T02220144 56007
RJOI 190755Z 00000KT 9999 FEW025 BKN070 OVC120 22/14 A2990 RMK SHRAB01E13 SLP125 P0000 T02170144
RJOI 190655Z 22003KT 9999 FEW025 BKN070 OVC120 21/16 A2991 RMK SHRAE49 SLP127 P0000 T02110161
RJOI 190555Z 23003KT 9999 -SHRA FEW025 BKN040 OVC080 22/15 A2992 RMK SHRAE04B46 SLP132 P0000 60002 T02170150 10239 20206 58010
RJOI 190455Z 21004KT 9999 -SHRA FEW030 SCT045 OVC080 21/16 A2994 RMK SLP139 P0000 T02060156
RJOI 190355Z 20007KT 9999 -SHRA SCT030 BKN045 OVC080 22/16 A2996 RMK SLP143 P0002 T02170161
RJOI 190255Z 16007KT 9999 -SHRA FEW030 SCT045 BKN080 22/14 A2996 RMK SHRAB40 SLP144 P0000 60000 T02170144 56003
RJOI 190155Z 09005KT 9999 FEW030 BKN080 BKN120 22/14 A2995 RMK SLP143 T02170139
RJOI 190055Z 08006KT 9999 FEW030 SCT100 BKN230 23/14 A2997 RMK SLP148 T02330139
RJOI 182355Z 04009KT 9999 FEW030 SCT080 BKN230 23/14 A2997 RMK SLP148 T02330139 10233 20178 58007